Time;durP1;ratioP1;P1;durP2;ratioP2;P2;SDS_P1;SDS_P2;PMS_P1;PMS_P2;Temp;Humidity;BMP_temperature;BMP_pressure;BME280_temperature;BME280_humidity;BME280_pressure;Samples;Min_cycle;Max_cycle;Signal;HPM_P1;HPM_P2
2022/09/09 00:02:01;;;;;;;4.00;1.43;;;17.80;85.20;;;;;;5072160;28;20438;-63
2022/09/09 00:04:29;;;;;;;2.87;1.23;;;17.80;85.40;;;;;;5071928;28;20465;-63
2022/09/09 00:07:07;;;;;;;2.10;1.30;;;17.80;85.40;;;;;;5072143;28;20466;-63
2022/09/09 00:09:41;;;;;;;3.50;1.40;;;17.80;86.00;;;;;;5071721;28;20436;-63
2022/09/09 00:12:16;;;;;;;6.73;2.13;;;17.70;85.40;;;;;;5072296;28;20446;-63
2022/09/09 00:14:51;;;;;;;4.63;1.43;;;17.70;85.80;;;;;;5070622;28;20433;-64
2022/09/09 00:17:34;;;;;;;2.63;1.30;;;17.60;86.20;;;;;;5071866;28;20438;-63
2022/09/09 00:20:10;;;;;;;6.87;2.00;;;17.60;86.40;;;;;;5071460;28;20887;-64
2022/09/09 00:22:41;;;;;;;5.20;2.07;;;17.60;86.70;;;;;;5069942;28;20464;-63
2022/09/09 00:25:16;;;;;;;2.90;1.70;;;17.60;87.50;;;;;;5071830;28;20806;-63
2022/09/09 00:27:50;;;;;;;3.00;1.40;;;17.60;87.30;;;;;;5071435;28;20461;-63
2022/09/09 00:30:22;;;;;;;2.57;1.30;;;17.60;87.50;;;;;;5072114;28;20836;-63
2022/09/09 00:32:50;;;;;;;3.00;1.67;;;17.50;87.30;;;;;;5071565;28;20532;-63
2022/09/09 00:35:23;;;;;;;5.53;1.90;;;17.50;87.50;;;;;;5071706;28;20992;-68
2022/09/09 00:37:56;;;;;;;2.90;1.20;;;17.40;88.10;;;;;;5070868;28;21388;-63
2022/09/09 00:40:30;;;;;;;6.50;1.40;;;17.40;88.70;;;;;;5072029;28;20572;-63
2022/09/09 00:43:16;;;;;;;3.70;1.70;;;17.40;89.20;;;;;;5071789;28;20508;-63
2022/09/09 00:46:06;;;;;;;3.80;1.77;;;17.40;89.20;;;;;;5075298;28;20437;-63
2022/09/09 00:48:42;;;;;;;3.53;1.43;;;17.40;89.70;;;;;;5069927;28;20936;-65
2022/09/09 00:51:16;;;;;;;7.23;1.47;;;17.40;89.80;;;;;;5075115;28;20433;-63
2022/09/09 00:54:08;;;;;;;5.20;1.60;;;17.50;90.00;;;;;;5074920;28;20441;-63
2022/09/09 00:56:42;;;;;;;3.07;1.30;;;17.50;90.20;;;;;;5075287;28;20443;-63
2022/09/09 00:59:24;;;;;;;3.53;1.43;;;17.60;90.20;;;;;;5074800;28;20477;-64
2022/09/09 01:01:52;;;;;;;3.03;1.73;;;17.60;90.20;;;;;;5074643;28;20866;-66
2022/09/09 01:04:30;;;;;;;4.20;1.60;;;17.60;90.20;;;;;;5074898;28;20490;-63
2022/09/09 01:07:10;;;;;;;2.60;1.53;;;17.70;90.30;;;;;;5074907;28;20452;-64
2022/09/09 01:09:51;;;;;;;3.17;1.63;;;17.70;90.10;;;;;;5075094;28;20459;-63
2022/09/09 01:12:31;;;;;;;4.20;2.30;;;17.70;90.00;;;;;;5074541;28;20484;-64
2022/09/09 01:15:09;;;;;;;2.97;1.30;;;17.70;90.10;;;;;;5074970;28;20507;-63
2022/09/09 01:17:50;;;;;;;4.03;1.80;;;17.70;90.10;;;;;;5074414;28;20444;-63
2022/09/09 01:20:24;;;;;;;2.70;1.70;;;17.70;90.30;;;;;;5074661;28;20485;-63
2022/09/09 01:23:07;;;;;;;6.10;1.73;;;17.60;90.30;;;;;;5074349;28;20500;-63
2022/09/09 01:26:16;;;;;;;3.60;1.57;;;17.60;90.50;;;;;;5074563;28;20902;-63
2022/09/09 01:28:45;;;;;;;2.27;1.40;;;17.70;90.60;;;;;;5054737;28;20440;-63
2022/09/09 01:31:16;;;;;;;3.13;1.43;;;17.60;90.60;;;;;;5055589;28;20442;-63
2022/09/09 01:33:43;;;;;;;2.70;1.47;;;17.70;90.70;;;;;;5074478;28;20436;-63
2022/09/09 01:36:15;;;;;;;2.00;1.20;;;17.70;90.70;;;;;;5073311;28;20475;-65
2022/09/09 01:38:42;;;;;;;3.83;1.73;;;17.70;90.50;;;;;;5074352;28;20433;-63
2022/09/09 01:41:11;;;;;;;3.07;1.37;;;17.70;90.50;;;;;;5074167;28;20578;-64
2022/09/09 01:43:39;;;;;;;2.27;1.20;;;17.70;90.60;;;;;;5074467;28;20806;-63
2022/09/09 01:46:06;;;;;;;2.33;1.17;;;17.70;90.80;;;;;;5074450;28;20446;-63
2022/09/09 01:48:34;;;;;;;4.50;1.30;;;17.70;90.90;;;;;;5065431;28;20434;-66
2022/09/09 01:51:01;;;;;;;5.43;1.40;;;17.70;91.10;;;;;;5074215;28;20446;-63
2022/09/09 01:53:29;;;;;;;4.37;1.80;;;17.70;91.10;;;;;;5074208;28;20446;-65
2022/09/09 01:56:05;;;;;;;2.40;1.40;;;17.70;91.20;;;;;;5073807;28;20438;-63
2022/09/09 01:58:46;;;;;;;6.67;1.50;;;17.60;91.30;;;;;;5073295;28;20490;-63
2022/09/09 02:01:23;;;;;;;3.23;1.60;;;17.60;91.50;;;;;;5074122;28;20484;-63
2022/09/09 02:03:54;;;;;;;2.20;1.30;;;17.60;91.70;;;;;;5073109;28;20436;-63
2022/09/09 02:06:30;;;;;;;2.07;1.20;;;17.60;91.70;;;;;;5073842;28;20441;-64
2022/09/09 02:08:59;;;;;;;3.60;1.43;;;17.60;91.70;;;;;;5073619;28;20801;-63
2022/09/09 02:11:28;;;;;;;4.07;1.60;;;17.50;92.10;;;;;;5073898;28;20438;-63
2022/09/09 02:14:02;;;;;;;2.80;1.60;;;17.50;92.30;;;;;;5073265;28;20494;-63
2022/09/09 02:16:35;;;;;;;2.43;1.67;;;17.50;92.40;;;;;;5073466;28;20441;-64
2022/09/09 02:19:07;;;;;;;2.73;1.43;;;17.50;92.40;;;;;;5073425;28;20441;-64
2022/09/09 02:21:36;;;;;;;4.13;3.43;;;17.50;92.60;;;;;;5073530;28;20488;-63
2022/09/09 02:24:07;;;;;;;5.50;1.87;;;17.50;92.80;;;;;;5071672;28;20454;-63
2022/09/09 02:26:37;;;;;;;3.03;1.33;;;17.50;93.10;;;;;;5073329;28;20442;-64
2022/09/09 02:29:09;;;;;;;5.60;1.53;;;17.40;93.20;;;;;;5072689;28;20948;-63
2022/09/09 02:31:38;;;;;;;3.20;1.43;;;17.30;93.40;;;;;;5071239;28;20440;-63
2022/09/09 02:34:10;;;;;;;3.10;1.57;;;17.30;93.60;;;;;;5073440;28;20853;-63
2022/09/09 02:36:39;;;;;;;3.30;1.40;;;17.30;93.60;;;;;;5071974;28;20476;-63
2022/09/09 02:39:11;;;;;;;3.03;1.30;;;17.30;93.60;;;;;;5072898;28;20833;-65
2022/09/09 02:41:40;;;;;;;3.10;1.30;;;17.30;93.40;;;;;;5072651;28;20462;-63
2022/09/09 02:44:12;;;;;;;2.33;1.27;;;17.40;93.30;;;;;;5072620;28;20529;-64
2022/09/09 02:47:07;;;;;;;2.53;1.20;;;17.40;93.20;;;;;;5072967;28;20473;-63
2022/09/09 02:49:44;;;;;;;4.30;1.80;;;17.40;93.10;;;;;;5046859;28;20944;-63
2022/09/09 02:52:27;;;;;;;2.50;1.20;;;17.40;93.20;;;;;;5072031;28;20439;-63
2022/09/09 02:55:03;;;;;;;4.10;1.60;;;17.40;93.10;;;;;;5072693;28;20441;-63
2022/09/09 02:57:33;;;;;;;2.40;1.50;;;17.40;93.10;;;;;;5073133;28;20435;-63
2022/09/09 03:00:02;;;;;;;2.80;1.57;;;17.40;93.10;;;;;;5072314;28;20846;-63
2022/09/09 03:02:30;;;;;;;2.43;1.40;;;17.50;93.10;;;;;;5072486;28;20455;-63
2022/09/09 03:04:57;;;;;;;6.17;1.83;;;17.50;93.00;;;;;;5070876;28;20485;-63
2022/09/09 03:07:25;;;;;;;3.10;1.43;;;17.50;92.80;;;;;;5072468;28;20522;-63
2022/09/09 03:09:54;;;;;;;4.27;1.90;;;17.50;92.80;;;;;;5072431;28;20448;-64
2022/09/09 03:12:21;;;;;;;2.60;1.47;;;17.50;93.00;;;;;;5072950;28;20509;-63
2022/09/09 03:14:51;;;;;;;2.23;1.37;;;17.50;93.00;;;;;;5072233;28;20453;-63
2022/09/09 03:17:20;;;;;;;3.77;1.80;;;17.50;93.10;;;;;;5072817;28;20854;-63
2022/09/09 03:19:52;;;;;;;4.00;1.40;;;17.50;93.00;;;;;;5072055;28;20433;-63
2022/09/09 03:22:20;;;;;;;5.30;1.50;;;17.50;93.00;;;;;;5072680;28;20473;-63
2022/09/09 03:24:47;;;;;;;2.40;1.40;;;17.50;92.90;;;;;;5069756;28;20913;-63
2022/09/09 03:27:15;;;;;;;5.10;1.40;;;17.50;92.90;;;;;;5072315;28;20445;-63
2022/09/09 03:29:42;;;;;;;5.03;1.30;;;17.50;93.00;;;;;;5071937;28;20532;-63
2022/09/09 03:32:15;;;;;;;3.13;1.40;;;17.50;93.00;;;;;;5072664;28;20825;-63
2022/09/09 03:34:44;;;;;;;2.43;1.27;;;17.50;93.00;;;;;;5071945;28;20453;-63
2022/09/09 03:37:11;;;;;;;5.13;1.20;;;17.50;92.90;;;;;;5072322;28;20468;-63
2022/09/09 03:39:40;;;;;;;2.90;1.53;;;17.40;92.80;;;;;;5071799;28;20437;-63
2022/09/09 03:42:07;;;;;;;2.10;1.27;;;17.50;92.80;;;;;;5072612;28;20503;-63
2022/09/09 03:44:34;;;;;;;2.70;1.50;;;17.40;92.90;;;;;;5071790;28;20438;-63
2022/09/09 03:47:01;;;;;;;3.77;1.80;;;17.30;92.90;;;;;;5072299;28;20492;-64
2022/09/09 03:49:29;;;;;;;3.00;1.60;;;17.30;93.10;;;;;;5071326;28;20840;-63
2022/09/09 03:51:58;;;;;;;2.30;1.33;;;17.30;93.10;;;;;;5071872;28;20437;-63
2022/09/09 03:54:27;;;;;;;2.30;1.30;;;17.20;93.20;;;;;;5072051;28;20462;-63
2022/09/09 03:56:54;;;;;;;4.23;1.40;;;17.20;93.40;;;;;;5072532;28;20472;-63
2022/09/09 03:59:23;;;;;;;3.03;1.00;;;17.10;93.50;;;;;;5071413;28;20507;-63
2022/09/09 04:01:50;;;;;;;4.60;1.57;;;17.10;93.60;;;;;;5072157;28;20609;-63
2022/09/09 04:04:17;;;;;;;3.60;1.70;;;17.20;93.60;;;;;;5072024;28;20437;-63
2022/09/09 04:06:44;;;;;;;3.37;1.57;;;17.20;93.70;;;;;;5071925;28;20910;-63
2022/09/09 04:09:12;;;;;;;2.77;2.00;;;17.10;93.70;;;;;;5071304;28;20444;-63
2022/09/09 04:11:39;;;;;;;6.03;2.17;;;17.10;94.00;;;;;;5071193;28;20444;-63
2022/09/09 04:14:06;;;;;;;5.83;2.40;;;17.20;94.00;;;;;;5071715;28;20498;-63
2022/09/09 04:16:35;;;;;;;3.90;2.30;;;17.10;94.00;;;;;;5072120;28;20468;-63
2022/09/09 04:19:04;;;;;;;5.00;1.50;;;17.20;94.10;;;;;;5074103;28;20455;-64
2022/09/09 04:21:31;;;;;;;3.30;1.63;;;17.20;94.00;;;;;;5075062;28;20476;-64
2022/09/09 04:23:58;;;;;;;3.60;1.73;;;17.10;94.00;;;;;;5073082;28;20440;-64
2022/09/09 04:26:26;;;;;;;2.33;1.53;;;17.10;94.10;;;;;;5075776;28;20969;-63
2022/09/09 04:28:53;;;;;;;3.20;1.13;;;17.10;94.20;;;;;;5074541;28;20490;-63
2022/09/09 04:31:23;;;;;;;4.10;1.87;;;17.10;94.20;;;;;;5074998;28;20551;-63
2022/09/09 04:33:50;;;;;;;2.20;1.43;;;17.20;94.30;;;;;;5075661;28;20461;-63
2022/09/09 04:36:18;;;;;;;3.00;1.40;;;17.10;94.20;;;;;;5072689;28;20982;-63
2022/09/09 04:38:45;;;;;;;3.63;1.27;;;17.00;94.20;;;;;;5072719;28;20479;-64
2022/09/09 04:41:16;;;;;;;3.37;1.80;;;17.00;94.40;;;;;;5072898;28;20485;-63
2022/09/09 04:43:44;;;;;;;2.60;1.23;;;16.90;94.40;;;;;;5073855;28;20436;-63
2022/09/09 04:46:12;;;;;;;3.03;1.47;;;16.80;94.70;;;;;;5072929;28;20424;-66
2022/09/09 04:48:39;;;;;;;2.73;1.43;;;16.80;94.80;;;;;;5073291;28;20432;-63
2022/09/09 04:51:09;;;;;;;4.47;1.47;;;16.70;94.80;;;;;;5073073;28;20510;-64
2022/09/09 04:53:37;;;;;;;2.43;1.40;;;16.70;94.70;;;;;;5073468;28;20466;-63
2022/09/09 04:56:07;;;;;;;3.33;1.33;;;16.60;94.80;;;;;;5072985;28;20939;-66
2022/09/09 04:58:35;;;;;;;3.03;1.63;;;16.60;94.80;;;;;;5073518;28;20436;-63
2022/09/09 05:01:09;;;;;;;2.80;1.80;;;16.70;95.00;;;;;;5072781;28;20492;-63
2022/09/09 05:03:37;;;;;;;5.63;1.77;;;16.70;95.10;;;;;;5069356;28;20498;-63
2022/09/09 05:06:10;;;;;;;3.27;2.00;;;16.70;95.30;;;;;;5073371;28;21114;-64
2022/09/09 05:08:39;;;;;;;5.07;3.70;;;16.70;95.50;;;;;;5073178;28;20922;-63
2022/09/09 05:11:17;;;;;;;5.47;3.47;;;16.70;95.60;;;;;;5068723;28;20831;-62
2022/09/09 05:13:44;;;;;;;7.40;2.33;;;16.80;95.70;;;;;;5073342;28;20838;-63
2022/09/09 05:16:13;;;;;;;2.73;1.60;;;16.80;95.70;;;;;;5071717;28;21227;-63
2022/09/09 05:18:40;;;;;;;3.13;1.70;;;16.80;95.50;;;;;;5071880;28;20930;-64
2022/09/09 05:21:08;;;;;;;5.20;2.87;;;16.80;95.50;;;;;;5070981;28;20480;-63
2022/09/09 05:23:35;;;;;;;12.60;8.57;;;16.90;95.60;;;;;;5072512;28;20477;-63
2022/09/09 05:26:03;;;;;;;8.60;5.80;;;16.90;95.70;;;;;;5072857;28;20442;-64
2022/09/09 05:28:30;;;;;;;9.90;5.57;;;16.90;95.30;;;;;;5073091;28;20436;-66
2022/09/09 05:31:00;;;;;;;22.03;14.40;;;17.00;95.50;;;;;;5072478;28;20445;-63
2022/09/09 05:33:29;;;;;;;73.80;48.97;;;16.90;95.40;;;;;;5072647;28;20432;-64
2022/09/09 05:35:58;;;;;;;31.53;20.50;;;17.00;95.40;;;;;;5071708;28;20523;-63
2022/09/09 05:38:26;;;;;;;31.67;21.10;;;17.00;95.40;;;;;;5073058;28;20448;-63
2022/09/09 05:40:57;;;;;;;18.73;15.40;;;17.00;95.00;;;;;;5072385;28;20483;-63
2022/09/09 05:43:25;;;;;;;24.13;16.63;;;16.90;95.10;;;;;;5072639;28;20451;-63
2022/09/09 05:46:04;;;;;;;22.23;16.80;;;16.90;95.10;;;;;;5071917;28;20451;-63
2022/09/09 05:48:34;;;;;;;16.23;14.43;;;17.00;95.10;;;;;;5072278;28;20805;-64
2022/09/09 05:51:04;;;;;;;10.50;8.00;;;17.00;95.10;;;;;;5070736;28;20467;-64
2022/09/09 05:53:34;;;;;;;4.93;4.27;;;17.10;95.20;;;;;;5072836;28;20436;-63
2022/09/09 05:56:05;;;;;;;3.30;2.27;;;17.10;95.30;;;;;;5072123;28;20444;-64
2022/09/09 05:58:32;;;;;;;5.80;2.60;;;17.20;95.30;;;;;;5069655;28;20432;-63
2022/09/09 06:01:05;;;;;;;3.70;2.30;;;17.20;95.30;;;;;;5072039;28;20476;-63
2022/09/09 06:03:37;;;;;;;4.60;2.27;;;17.20;95.30;;;;;;5072414;28;20439;-64
2022/09/09 06:06:06;;;;;;;4.30;2.30;;;17.20;95.30;;;;;;5072875;28;20442;-64
2022/09/09 06:08:33;;;;;;;4.33;2.20;;;17.30;95.10;;;;;;5072787;28;20445;-63
2022/09/09 06:11:04;;;;;;;10.60;2.10;;;17.30;95.00;;;;;;5072371;28;20501;-63
2022/09/09 06:13:31;;;;;;;2.97;2.10;;;17.30;95.10;;;;;;5071828;28;20430;-64
2022/09/09 06:15:59;;;;;;;4.63;1.80;;;17.40;95.10;;;;;;5071786;28;20433;-64
2022/09/09 06:18:27;;;;;;;4.73;1.83;;;17.50;95.20;;;;;;5072259;28;20783;-64
2022/09/09 06:21:00;;;;;;;2.33;1.50;;;17.50;95.10;;;;;;5071747;28;20482;-64
2022/09/09 06:23:35;;;;;;;8.80;2.50;;;17.50;95.10;;;;;;5068971;28;20440;-63
2022/09/09 06:26:05;;;;;;;11.77;8.90;;;17.60;95.00;;;;;;5072382;28;20811;-64
2022/09/09 06:28:32;;;;;;;3.47;2.00;;;17.60;95.20;;;;;;5067821;28;20440;-63
2022/09/09 06:31:00;;;;;;;3.97;1.70;;;17.60;94.60;;;;;;5071984;28;20450;-64
2022/09/09 06:33:28;;;;;;;5.67;3.77;;;17.60;94.20;;;;;;5071369;28;20442;-63
2022/09/09 06:35:56;;;;;;;8.83;5.50;;;17.70;94.00;;;;;;5071526;28;20457;-64
2022/09/09 06:38:25;;;;;;;4.27;2.63;;;17.70;93.80;;;;;;5071868;28;20943;-63
2022/09/09 06:40:54;;;;;;;8.97;5.70;;;17.70;93.80;;;;;;5071096;28;20444;-63
2022/09/09 06:43:31;;;;;;;8.23;5.37;;;17.70;93.80;;;;;;5071256;28;20448;-64
2022/09/09 06:45:59;;;;;;;7.57;4.30;;;17.80;93.90;;;;;;5068755;28;20470;-63
2022/09/09 06:48:27;;;;;;;3.13;1.87;;;17.80;94.10;;;;;;5070549;28;20528;-63
2022/09/09 06:51:02;;;;;;;3.57;1.50;;;17.90;94.20;;;;;;5072533;28;20446;-64
2022/09/09 06:53:33;;;;;;;3.67;2.13;;;18.00;93.90;;;;;;5073216;28;20949;-64
2022/09/09 06:56:01;;;;;;;2.93;1.53;;;18.00;93.90;;;;;;5073184;28;20792;-64
2022/09/09 06:58:28;;;;;;;2.40;1.10;;;18.10;93.70;;;;;;5073471;28;20495;-63
2022/09/09 07:01:04;;;;;;;5.10;1.90;;;18.20;93.90;;;;;;5073118;28;20434;-63
2022/09/09 07:03:30;;;;;;;2.80;1.67;;;18.30;93.70;;;;;;5073460;28;20449;-64
2022/09/09 07:05:59;;;;;;;6.83;1.73;;;18.30;93.50;;;;;;5073519;28;20462;-64
2022/09/09 07:08:26;;;;;;;3.30;1.70;;;18.40;93.50;;;;;;5073575;28;20435;-63
2022/09/09 07:10:55;;;;;;;3.30;1.67;;;18.40;93.70;;;;;;5073226;28;20462;-63
2022/09/09 07:13:27;;;;;;;2.80;1.90;;;18.40;93.40;;;;;;5073110;28;20859;-63
2022/09/09 07:15:54;;;;;;;3.93;1.57;;;18.40;93.30;;;;;;5072587;28;20473;-63
2022/09/09 07:18:21;;;;;;;4.00;1.67;;;18.50;93.60;;;;;;5073181;28;20530;-63
2022/09/09 07:20:54;;;;;;;3.23;1.70;;;18.60;93.50;;;;;;5073034;28;20481;-63
2022/09/09 07:23:22;;;;;;;2.60;1.50;;;18.60;93.40;;;;;;5072934;28;20439;-64
2022/09/09 07:25:49;;;;;;;3.60;1.87;;;18.70;93.50;;;;;;5072968;28;20859;-63
2022/09/09 07:28:17;;;;;;;6.27;1.47;;;18.70;93.20;;;;;;5073170;28;20555;-63
2022/09/09 07:30:44;;;;;;;2.87;1.53;;;18.70;93.40;;;;;;5072831;28;20454;-64
2022/09/09 07:33:11;;;;;;;4.97;1.63;;;18.70;93.30;;;;;;5072710;28;20522;-63
2022/09/09 07:35:38;;;;;;;4.50;1.37;;;18.80;93.60;;;;;;5072447;28;20895;-63
2022/09/09 07:38:06;;;;;;;4.83;1.53;;;18.70;93.50;;;;;;5068850;28;20474;-63
2022/09/09 07:40:33;;;;;;;4.90;1.57;;;18.70;92.50;;;;;;5070881;28;20478;-63
2022/09/09 07:43:02;;;;;;;3.80;2.50;;;18.60;92.30;;;;;;5070825;28;20490;-64
2022/09/09 07:45:33;;;;;;;5.43;3.40;;;18.40;91.50;;;;;;5071177;28;20442;-64
2022/09/09 07:48:03;;;;;;;2.90;1.83;;;18.30;91.70;;;;;;5071159;28;20434;-64
2022/09/09 07:50:30;;;;;;;2.43;1.37;;;18.20;91.90;;;;;;5070604;28;20470;-63
2022/09/09 07:53:04;;;;;;;3.17;1.50;;;18.20;91.40;;;;;;5073803;28;20839;-63
2022/09/09 07:55:31;;;;;;;3.40;1.33;;;18.30;90.90;;;;;;5074832;28;20448;-64
2022/09/09 07:57:58;;;;;;;3.70;1.47;;;18.30;90.60;;;;;;5075248;28;20970;-64
2022/09/09 08:00:27;;;;;;;2.17;1.10;;;18.40;90.80;;;;;;5074840;28;20481;-64
2022/09/09 08:02:56;;;;;;;2.70;1.63;;;18.40;90.80;;;;;;5072460;28;20497;-63
2022/09/09 08:05:23;;;;;;;3.30;1.50;;;18.50;90.30;;;;;;5074923;28;21011;-63
2022/09/09 08:07:52;;;;;;;3.80;1.40;;;18.50;90.60;;;;;;5074650;28;20945;-63
2022/09/09 08:10:24;;;;;;;4.63;1.93;;;18.60;90.90;;;;;;5074657;28;20538;-64
2022/09/09 08:12:52;;;;;;;5.60;1.60;;;18.60;91.30;;;;;;5074886;28;20526;-64
2022/09/09 08:15:19;;;;;;;3.23;2.10;;;18.60;90.80;;;;;;5074584;28;20459;-63
2022/09/09 08:17:46;;;;;;;2.80;1.30;;;18.60;90.90;;;;;;5074823;28;20426;-63
2022/09/09 08:20:15;;;;;;;3.30;1.20;;;18.60;90.70;;;;;;5074486;28;20521;-63
2022/09/09 08:22:42;;;;;;;2.33;1.10;;;18.50;90.90;;;;;;5074673;28;20488;-63
2022/09/09 08:25:10;;;;;;;2.77;1.30;;;18.50;90.70;;;;;;5074330;28;20495;-64
2022/09/09 08:27:37;;;;;;;2.90;1.27;;;18.60;91.00;;;;;;5074268;28;20451;-64
2022/09/09 08:30:05;;;;;;;3.23;1.40;;;18.60;91.10;;;;;;5074452;28;20430;-63
2022/09/09 08:32:36;;;;;;;4.23;1.50;;;18.60;91.00;;;;;;5074182;28;20525;-64
2022/09/09 08:35:06;;;;;;;2.53;1.30;;;18.60;91.10;;;;;;5073507;28;20449;-63
2022/09/09 08:37:34;;;;;;;3.03;1.50;;;18.60;90.90;;;;;;5074196;28;20451;-63
2022/09/09 08:40:04;;;;;;;3.80;1.03;;;18.60;91.00;;;;;;5074116;28;20861;-64
2022/09/09 08:42:42;;;;;;;2.73;1.10;;;18.60;91.10;;;;;;5073881;28;20882;-64
2022/09/09 08:45:30;;;;;;;3.10;1.10;;;18.60;91.00;;;;;;5074210;28;20450;-63
2022/09/09 08:48:11;;;;;;;2.10;1.07;;;18.50;90.80;;;;;;5074574;28;21024;-63
2022/09/09 08:50:41;;;;;;;2.40;1.03;;;18.40;90.60;;;;;;5071202;28;20867;-63
2022/09/09 08:53:17;;;;;;;5.30;1.10;;;18.30;90.30;;;;;;5074242;28;20442;-63
2022/09/09 08:55:48;;;;;;;2.63;1.27;;;18.20;90.50;;;;;;5073759;28;20443;-63
2022/09/09 08:58:17;;;;;;;2.83;0.90;;;18.20;90.40;;;;;;5074083;28;20462;-63
2022/09/09 09:01:01;;;;;;;2.13;0.80;;;18.20;90.50;;;;;;5073566;28;20940;-64
2022/09/09 09:03:36;;;;;;;2.70;0.93;;;18.20;90.70;;;;;;5073214;28;20576;-63
2022/09/09 09:06:10;;;;;;;2.23;0.97;;;18.20;90.60;;;;;;5071105;28;20528;-63
2022/09/09 09:08:45;;;;;;;3.40;1.00;;;18.30;90.50;;;;;;5071572;28;20533;-63
2022/09/09 09:11:12;;;;;;;1.60;0.70;;;18.30;90.00;;;;;;5071701;28;20442;-63
2022/09/09 09:13:44;;;;;;;2.47;0.80;;;18.20;89.80;;;;;;5073627;28;20526;-63
2022/09/09 09:16:20;;;;;;;2.17;0.80;;;18.20;89.90;;;;;;5073295;28;20828;-63
2022/09/09 09:18:47;;;;;;;4.40;0.90;;;18.00;90.00;;;;;;5073544;28;20489;-63
2022/09/09 09:21:24;;;;;;;2.53;0.90;;;18.00;90.20;;;;;;5073025;28;20442;-63
2022/09/09 09:23:57;;;;;;;2.93;1.10;;;17.90;90.70;;;;;;5072372;28;20553;-64
2022/09/09 09:26:27;;;;;;;3.60;1.30;;;17.90;90.90;;;;;;5073440;28;20528;-64
2022/09/09 09:28:57;;;;;;;2.80;1.30;;;17.90;90.70;;;;;;5071213;28;20525;-63
2022/09/09 09:31:26;;;;;;;2.83;1.23;;;18.00;90.60;;;;;;5073089;28;20557;-64
2022/09/09 09:33:59;;;;;;;2.40;1.30;;;18.00;90.80;;;;;;5072919;28;20448;-63
2022/09/09 09:36:34;;;;;;;2.80;0.80;;;18.00;90.90;;;;;;5070808;28;20478;-64
2022/09/09 09:39:05;;;;;;;3.10;1.10;;;18.00;90.90;;;;;;5071267;28;20438;-64
2022/09/09 09:41:39;;;;;;;3.90;0.90;;;17.90;91.20;;;;;;5072855;28;20599;-63
2022/09/09 09:44:22;;;;;;;4.63;1.17;;;17.90;91.30;;;;;;5072733;28;20442;-63
2022/09/09 09:46:49;;;;;;;2.20;0.90;;;18.00;91.50;;;;;;5072265;28;21247;-65
2022/09/09 09:49:17;;;;;;;4.13;0.83;;;18.10;91.30;;;;;;5072489;28;20520;-63
2022/09/09 09:51:44;;;;;;;2.83;1.10;;;18.10;91.30;;;;;;5072624;28;20559;-63
2022/09/09 09:54:18;;;;;;;6.37;1.03;;;18.10;91.10;;;;;;5072421;28;20473;-63
2022/09/09 09:56:47;;;;;;;3.17;1.17;;;18.10;90.60;;;;;;5071609;28;20442;-63
2022/09/09 09:59:34;;;;;;;3.40;1.10;;;18.10;90.80;;;;;;5072205;28;20446;-63
2022/09/09 10:02:15;;;;;;;2.03;1.30;;;18.20;90.60;;;;;;5070624;28;20482;-64
2022/09/09 10:04:42;;;;;;;3.63;1.20;;;18.30;90.50;;;;;;5071305;28;20537;-63
2022/09/09 10:07:12;;;;;;;5.80;3.40;;;18.30;90.70;;;;;;5072104;28;20472;-63
2022/09/09 10:09:46;;;;;;;2.43;1.40;;;18.50;90.30;;;;;;5072007;28;20538;-63
2022/09/09 10:12:24;;;;;;;3.47;1.03;;;18.60;90.20;;;;;;5072537;28;21000;-63
2022/09/09 10:15:01;;;;;;;6.80;1.13;;;18.80;90.20;;;;;;5071386;28;20438;-63
2022/09/09 10:17:34;;;;;;;3.20;1.00;;;18.80;89.20;;;;;;5069281;28;20529;-63
2022/09/09 10:20:20;;;;;;;3.60;1.10;;;18.80;89.20;;;;;;5069666;28;20447;-64
2022/09/09 10:22:52;;;;;;;1.70;0.70;;;18.80;89.20;;;;;;5072127;28;20496;-63
2022/09/09 10:25:39;;;;;;;2.50;1.10;;;18.80;89.70;;;;;;5069851;28;20776;-63
2022/09/09 10:28:43;;;;;;;2.13;0.83;;;18.90;90.40;;;;;;5070730;28;20440;-64
2022/09/09 10:31:22;;;;;;;3.03;0.87;;;19.00;89.80;;;;;;5060712;28;20458;-64
2022/09/09 10:33:52;;;;;;;2.40;1.00;;;19.10;89.00;;;;;;5073843;28;20444;-63
2022/09/09 10:36:22;;;;;;;2.43;1.07;;;19.20;87.20;;;;;;5073783;28;20833;-63
2022/09/09 10:38:58;;;;;;;2.47;0.80;;;19.40;87.60;;;;;;5073995;28;20767;-63
2022/09/09 10:41:43;;;;;;;2.20;1.07;;;19.50;86.40;;;;;;5073745;28;20522;-63
2022/09/09 10:44:27;;;;;;;2.53;1.13;;;19.80;85.80;;;;;;5073828;28;20490;-63
2022/09/09 10:47:10;;;;;;;2.13;0.70;;;20.00;85.90;;;;;;5073525;28;20764;-63
2022/09/09 10:49:57;;;;;;;3.00;0.80;;;20.30;83.20;;;;;;5073456;28;20440;-63
2022/09/09 10:52:30;;;;;;;2.00;0.93;;;20.40;82.20;;;;;;5069023;28;20537;-64
2022/09/09 10:55:01;;;;;;;5.47;1.63;;;20.30;81.70;;;;;;5073029;28;20526;-64
2022/09/09 10:57:34;;;;;;;3.27;1.83;;;20.30;82.40;;;;;;5073296;28;20479;-63
2022/09/09 11:00:05;;;;;;;3.33;1.10;;;20.10;81.90;;;;;;5072690;28;20556;-64
2022/09/09 11:02:34;;;;;;;2.17;0.87;;;20.10;83.00;;;;;;5072682;28;20479;-64
2022/09/09 11:05:05;;;;;;;2.10;1.00;;;20.00;81.50;;;;;;5071760;28;21094;-63
2022/09/09 11:07:40;;;;;;;1.90;0.90;;;19.90;82.70;;;;;;5072340;28;20986;-64
2022/09/09 11:10:24;;;;;;;1.90;0.90;;;20.00;83.50;;;;;;5061413;28;20447;-63
2022/09/09 11:12:59;;;;;;;3.40;0.80;;;20.10;82.80;;;;;;5062390;28;20918;-63
2022/09/09 11:15:31;;;;;;;2.30;0.80;;;20.10;82.50;;;;;;5072035;28;20467;-64
2022/09/09 11:18:02;;;;;;;1.93;0.77;;;20.20;83.80;;;;;;5072468;28;20457;-63
2022/09/09 11:20:29;;;;;;;4.43;2.63;;;20.30;83.60;;;;;;5072853;28;20436;-64
2022/09/09 11:23:01;;;;;;;4.53;3.27;;;20.30;83.40;;;;;;5072695;28;20478;-64
2022/09/09 11:25:35;;;;;;;2.00;1.10;;;20.30;82.30;;;;;;5072440;28;20444;-65
2022/09/09 11:28:27;;;;;;;2.07;0.87;;;20.10;82.40;;;;;;5072176;28;20501;-63
2022/09/09 11:31:12;;;;;;;2.40;0.90;;;20.00;84.20;;;;;;5072023;28;20527;-63
2022/09/09 11:33:57;;;;;;;3.00;1.30;;;19.70;87.70;;;;;;5071545;28;20468;-63
2022/09/09 11:36:52;;;;;;;2.00;0.63;;;19.60;87.60;;;;;;5071486;28;20543;-65
2022/09/09 11:39:48;;;;;;;2.60;0.73;;;19.30;86.90;;;;;;5071270;28;20501;-63
2022/09/09 11:42:19;;;;;;;2.40;0.93;;;19.10;89.00;;;;;;5072058;28;20450;-63
2022/09/09 11:44:47;;;;;;;3.83;1.10;;;19.20;89.20;;;;;;5071795;28;21000;-63
2022/09/09 11:47:24;;;;;;;4.87;2.73;;;19.20;90.00;;;;;;5072120;28;20536;-63
2022/09/09 11:49:53;;;;;;;2.83;1.20;;;19.20;89.90;;;;;;5062776;28;20443;-63
2022/09/09 11:52:26;;;;;;;1.93;0.73;;;19.20;89.50;;;;;;5071936;28;20447;-63
2022/09/09 11:54:56;;;;;;;2.57;1.20;;;19.20;90.30;;;;;;5072250;28;20861;-63
2022/09/09 11:57:31;;;;;;;3.43;2.07;;;19.30;90.30;;;;;;5072454;28;20530;-63
2022/09/09 12:00:00;;;;;;;3.00;1.10;;;19.40;90.40;;;;;;5072323;28;21005;-63
2022/09/09 12:02:30;;;;;;;2.37;1.13;;;19.40;90.10;;;;;;5072532;28;20445;-63
2022/09/09 12:05:02;;;;;;;3.00;1.00;;;19.50;90.20;;;;;;5072841;28;20486;-63
2022/09/09 12:07:39;;;;;;;1.90;0.77;;;19.50;88.60;;;;;;5072332;28;20883;-64
2022/09/09 12:10:22;;;;;;;2.87;0.90;;;19.50;86.90;;;;;;5072605;28;20436;-63
2022/09/09 12:12:49;;;;;;;1.80;0.70;;;19.50;88.00;;;;;;5072756;28;20515;-63
2022/09/09 12:15:25;;;;;;;4.30;1.63;;;19.60;88.50;;;;;;5072520;28;20514;-64
2022/09/09 12:17:54;;;;;;;2.57;0.90;;;19.80;87.50;;;;;;5072600;28;20455;-63
2022/09/09 12:20:23;;;;;;;2.00;0.83;;;19.90;85.60;;;;;;5072503;28;20547;-63
2022/09/09 12:23:07;;;;;;;1.93;0.60;;;20.40;83.80;;;;;;5072305;28;21064;-63
2022/09/09 12:25:47;;;;;;;2.47;0.77;;;20.80;82.40;;;;;;5072580;28;20529;-64
2022/09/09 12:28:20;;;;;;;3.37;1.10;;;21.30;81.30;;;;;;5072445;28;20482;-63
2022/09/09 12:30:56;;;;;;;2.57;1.00;;;22.00;83.60;;;;;;5072559;28;20779;-63
2022/09/09 12:33:24;;;;;;;3.23;0.80;;;23.00;79.00;;;;;;5072294;28;20439;-63
2022/09/09 12:35:55;;;;;;;2.40;0.80;;;23.70;76.30;;;;;;5071981;28;20473;-64
2022/09/09 12:38:32;;;;;;;1.70;0.60;;;24.40;73.90;;;;;;5072522;28;20472;-65
2022/09/09 12:41:00;;;;;;;2.87;0.83;;;24.70;64.70;;;;;;5075932;28;21036;-64
2022/09/09 12:43:28;;;;;;;2.67;0.63;;;24.40;59.00;;;;;;5075634;28;20484;-63
2022/09/09 12:46:01;;;;;;;2.60;0.80;;;23.90;59.30;;;;;;5075851;28;20519;-63
2022/09/09 12:48:36;;;;;;;2.33;0.80;;;23.60;59.30;;;;;;5070979;28;20526;-65
2022/09/09 12:51:05;;;;;;;2.23;0.70;;;23.40;59.60;;;;;;5072475;28;20443;-63
2022/09/09 12:53:36;;;;;;;4.90;1.10;;;23.40;59.80;;;;;;5072613;28;20496;-64
2022/09/09 12:56:07;;;;;;;3.70;0.80;;;23.60;58.40;;;;;;5072360;28;20519;-63
2022/09/09 12:58:34;;;;;;;3.67;0.90;;;23.90;60.20;;;;;;5072463;28;20828;-63
2022/09/09 13:01:05;;;;;;;3.57;0.83;;;24.20;57.60;;;;;;5072259;28;20634;-64
2022/09/09 13:03:33;;;;;;;3.33;0.90;;;24.20;59.80;;;;;;5072070;28;20487;-64
2022/09/09 13:06:12;;;;;;;2.63;0.60;;;24.30;57.40;;;;;;5071452;28;20530;-64
2022/09/09 13:08:40;;;;;;;2.20;1.00;;;24.60;61.00;;;;;;5073046;28;21796;-63
2022/09/09 13:11:11;;;;;;;3.40;0.70;;;24.80;58.30;;;;;;5073708;28;20531;-63